Time;durP1;ratioP1;P1;durP2;ratioP2;P2;SDS_P1;SDS_P2;PMS_P1;PMS_P2;Temp;Humidity;BMP_temperature;BMP_pressure;BME280_temperature;BME280_humidity;BME280_pressure;Samples;Min_cycle;Max_cycle;Signal;HPM_P1;HPM_P2
2021/06/19 00:00:19;;;;;;;9.30;6.00;;;23.80;98.30;;;;;;5071551;28;20182;-86
2021/06/19 00:02:44;;;;;;;7.43;5.67;;;23.80;98.30;;;;;;5057724;28;20205;-86
2021/06/19 00:05:11;;;;;;;8.23;5.73;;;23.70;98.40;;;;;;5057566;28;20495;-86
2021/06/19 00:07:39;;;;;;;10.53;6.30;;;23.70;98.20;;;;;;5051884;28;20269;-86
2021/06/19 00:10:07;;;;;;;12.13;5.77;;;23.60;98.40;;;;;;5057119;28;20468;-86
2021/06/19 00:12:34;;;;;;;9.33;5.43;;;23.50;98.50;;;;;;5056618;28;20849;-86
2021/06/19 00:15:01;;;;;;;10.47;5.83;;;23.60;97.90;;;;;;5059857;28;20436;-86
2021/06/19 00:17:27;;;;;;;12.20;5.80;;;23.60;98.10;;;;;;5055579;28;20433;-86
2021/06/19 00:19:52;;;;;;;9.97;5.80;;;23.60;98.10;;;;;;5053700;28;20444;-86
2021/06/19 00:22:18;;;;;;;9.60;6.33;;;23.50;98.00;;;;;;5057089;28;20216;-86
2021/06/19 00:24:44;;;;;;;11.10;7.13;;;23.50;98.40;;;;;;5071173;28;20223;-86
2021/06/19 00:27:10;;;;;;;12.27;6.67;;;23.50;98.80;;;;;;5056678;28;20456;-86
2021/06/19 00:29:36;;;;;;;15.67;7.10;;;23.50;98.90;;;;;;5063060;28;20555;-85
2021/06/19 00:32:02;;;;;;;11.60;6.70;;;23.40;99.50;;;;;;5055462;28;20186;-86
2021/06/19 00:34:27;;;;;;;10.97;6.57;;;23.40;99.80;;;;;;5052646;28;20201;-85
2021/06/19 00:36:53;;;;;;;12.10;6.17;;;23.40;99.90;;;;;;5059471;28;21023;-86
2021/06/19 00:39:19;;;;;;;13.73;6.40;;;23.30;99.90;;;;;;5054130;28;20193;-87
2021/06/19 00:41:44;;;;;;;9.27;6.00;;;23.30;99.90;;;;;;5054016;28;20679;-86
2021/06/19 00:44:19;;;;;;;10.30;6.03;;;23.20;99.90;;;;;;5057774;28;20672;-87
2021/06/19 00:46:51;;;;;;;8.73;5.30;;;23.20;99.90;;;;;;5060000;28;20205;-87
2021/06/19 00:49:17;;;;;;;9.13;6.20;;;23.20;99.80;;;;;;5057994;28;20462;-86
2021/06/19 00:51:43;;;;;;;9.60;6.30;;;23.20;99.90;;;;;;5057018;28;20444;-87
2021/06/19 00:54:09;;;;;;;9.70;5.50;;;23.10;99.90;;;;;;5065427;28;20989;-86
2021/06/19 00:56:36;;;;;;;8.47;5.60;;;23.10;99.90;;;;;;5060096;28;20445;-86
2021/06/19 00:59:04;;;;;;;12.93;5.97;;;23.10;99.80;;;;;;5057446;28;20676;-86
2021/06/19 01:01:30;;;;;;;5.83;4.20;;;23.10;99.50;;;;;;5052240;28;20448;-86
2021/06/19 01:03:56;;;;;;;6.87;4.50;;;23.10;98.40;;;;;;5057563;28;20465;-86
2021/06/19 01:06:21;;;;;;;11.00;4.57;;;23.00;98.10;;;;;;5052374;28;20528;-86
2021/06/19 01:08:47;;;;;;;9.03;4.73;;;23.00;98.20;;;;;;5057512;28;20182;-86
2021/06/19 01:11:14;;;;;;;8.93;4.87;;;23.00;98.20;;;;;;5058265;28;20194;-86
2021/06/19 01:13:40;;;;;;;5.27;4.70;;;23.00;98.70;;;;;;5041507;28;20186;-86
2021/06/19 01:16:05;;;;;;;9.23;4.90;;;22.90;98.90;;;;;;5053324;28;20505;-86
2021/06/19 01:18:31;;;;;;;8.60;4.87;;;22.80;99.20;;;;;;5054032;28;20182;-86
2021/06/19 01:20:56;;;;;;;13.87;5.40;;;22.90;98.70;;;;;;5058903;28;20198;-86
2021/06/19 01:23:22;;;;;;;8.27;4.63;;;22.80;98.80;;;;;;5052520;28;21269;-86
2021/06/19 01:25:48;;;;;;;8.50;4.17;;;22.70;99.10;;;;;;5052208;28;20776;-86
2021/06/19 01:28:13;;;;;;;9.50;5.10;;;22.70;99.00;;;;;;5047470;28;20671;-87
2021/06/19 01:30:39;;;;;;;9.90;5.23;;;22.70;98.60;;;;;;5053230;28;20187;-87
2021/06/19 01:33:08;;;;;;;9.67;4.53;;;22.80;98.50;;;;;;5055548;28;20198;-86
2021/06/19 01:35:35;;;;;;;7.90;5.67;;;22.80;98.60;;;;;;5053737;28;20182;-86
2021/06/19 01:38:01;;;;;;;9.07;5.13;;;22.70;99.00;;;;;;5049159;28;20839;-87
2021/06/19 01:40:31;;;;;;;7.90;5.20;;;22.70;99.40;;;;;;5052616;28;20441;-86
2021/06/19 01:42:58;;;;;;;9.37;4.63;;;22.60;99.90;;;;;;5050971;28;20442;-86
2021/06/19 01:45:32;;;;;;;9.33;6.70;;;22.50;99.90;;;;;;5055136;28;20563;-86
2021/06/19 01:48:07;;;;;;;12.27;5.70;;;22.50;99.90;;;;;;5055446;28;20431;-86
2021/06/19 01:50:34;;;;;;;7.90;5.30;;;22.40;99.90;;;;;;5056475;28;20444;-86
2021/06/19 01:53:01;;;;;;;5.80;3.77;;;22.40;99.90;;;;;;5058493;28;20435;-86
2021/06/19 01:55:28;;;;;;;7.30;4.77;;;22.30;99.90;;;;;;5056898;28;20449;-86
2021/06/19 01:57:56;;;;;;;7.87;4.43;;;22.20;99.90;;;;;;5068662;28;20494;-86
2021/06/19 02:00:27;;;;;;;6.30;4.73;;;22.10;99.90;;;;;;5045083;28;21494;-86
2021/06/19 02:02:53;;;;;;;9.03;4.30;;;22.10;99.90;;;;;;5055013;28;20873;-86
2021/06/19 02:05:20;;;;;;;7.60;4.43;;;22.00;99.90;;;;;;5053055;28;20559;-86
2021/06/19 02:07:55;;;;;;;8.90;4.47;;;22.00;99.90;;;;;;5052056;28;20293;-86
2021/06/19 02:10:27;;;;;;;8.60;4.43;;;21.90;99.90;;;;;;5054017;28;20443;-86
2021/06/19 02:12:53;;;;;;;8.33;4.40;;;21.80;99.90;;;;;;5048961;28;20443;-87
2021/06/19 02:15:19;;;;;;;11.70;5.30;;;21.80;99.90;;;;;;5051982;28;20686;-87
2021/06/19 02:17:45;;;;;;;8.67;4.80;;;21.80;99.90;;;;;;5056467;28;20433;-86
2021/06/19 02:20:14;;;;;;;7.13;4.67;;;21.70;99.90;;;;;;5047819;28;20451;-86
2021/06/19 02:22:39;;;;;;;6.40;4.70;;;21.70;99.90;;;;;;5056501;28;20178;-87
2021/06/19 02:25:09;;;;;;;11.80;5.30;;;21.70;99.90;;;;;;5057260;28;20494;-86
2021/06/19 02:27:36;;;;;;;7.60;4.60;;;21.70;99.90;;;;;;5054972;28;20194;-86
2021/06/19 02:30:02;;;;;;;6.60;4.90;;;21.60;99.90;;;;;;5054448;28;20453;-86
2021/06/19 02:32:28;;;;;;;8.10;4.73;;;21.60;99.90;;;;;;5056735;28;20798;-86
2021/06/19 02:34:53;;;;;;;6.63;4.83;;;21.50;99.90;;;;;;5055719;28;20456;-86
2021/06/19 02:37:19;;;;;;;8.83;4.80;;;21.50;99.90;;;;;;5060041;28;20194;-86
2021/06/19 02:39:46;;;;;;;8.97;4.93;;;21.50;99.90;;;;;;5055719;28;20200;-86
2021/06/19 02:42:11;;;;;;;6.57;5.37;;;21.60;99.90;;;;;;5044635;28;20564;-86
2021/06/19 02:44:37;;;;;;;7.63;5.53;;;21.50;99.90;;;;;;5053212;28;20485;-86
2021/06/19 02:47:04;;;;;;;10.57;5.30;;;21.40;99.90;;;;;;5051098;28;20579;-86
2021/06/19 02:49:30;;;;;;;10.20;5.13;;;21.40;99.90;;;;;;5056846;28;20452;-86
2021/06/19 02:51:56;;;;;;;8.17;5.10;;;21.30;99.90;;;;;;5053821;28;20489;-86
2021/06/19 02:54:21;;;;;;;9.93;5.20;;;21.20;99.90;;;;;;5051313;28;20470;-86
2021/06/19 02:56:47;;;;;;;11.57;5.40;;;21.20;99.90;;;;;;5055643;28;20444;-86
2021/06/19 02:59:13;;;;;;;8.83;5.10;;;21.10;99.90;;;;;;5057763;28;20191;-86
2021/06/19 03:01:38;;;;;;;8.70;5.20;;;21.10;99.90;;;;;;5057662;28;20706;-86
2021/06/19 03:04:07;;;;;;;8.60;5.57;;;21.00;99.90;;;;;;5059121;28;20288;-86
2021/06/19 03:06:34;;;;;;;9.53;6.33;;;21.00;99.90;;;;;;5057880;28;20525;-86
2021/06/19 03:09:04;;;;;;;11.73;5.50;;;21.00;99.90;;;;;;5059939;28;20942;-86
2021/06/19 03:11:35;;;;;;;6.73;5.73;;;20.90;99.90;;;;;;5055810;28;20444;-86
2021/06/19 03:14:01;;;;;;;9.93;5.37;;;20.90;99.90;;;;;;5058762;28;20960;-86
2021/06/19 03:16:28;;;;;;;13.07;6.13;;;21.00;99.90;;;;;;5056985;28;20478;-86
2021/06/19 03:18:56;;;;;;;7.87;5.70;;;21.00;99.90;;;;;;5055406;28;20223;-86
2021/06/19 03:21:22;;;;;;;8.50;5.50;;;21.00;99.90;;;;;;5056753;28;20552;-86
2021/06/19 03:23:48;;;;;;;9.03;6.40;;;21.00;99.90;;;;;;5057931;28;20441;-86
2021/06/19 03:26:13;;;;;;;10.50;6.50;;;21.00;99.90;;;;;;5053625;28;20559;-86
2021/06/19 03:28:41;;;;;;;9.73;5.87;;;20.90;99.90;;;;;;5058344;28;20976;-86
2021/06/19 03:31:07;;;;;;;8.23;6.20;;;20.90;99.90;;;;;;5059085;28;20709;-86
2021/06/19 03:33:33;;;;;;;16.23;6.77;;;20.90;99.90;;;;;;5059793;28;20440;-86
2021/06/19 03:35:58;;;;;;;10.10;6.40;;;21.00;99.90;;;;;;5058929;28;20186;-86
2021/06/19 03:38:24;;;;;;;10.03;6.27;;;20.90;99.90;;;;;;5048649;28;20618;-86
2021/06/19 03:40:53;;;;;;;11.03;6.83;;;20.90;99.90;;;;;;5060242;28;20187;-86
2021/06/19 03:43:20;;;;;;;11.10;6.53;;;20.90;99.90;;;;;;5057649;28;20437;-86
2021/06/19 03:45:46;;;;;;;9.60;6.77;;;20.90;99.90;;;;;;5056844;28;20488;-86
2021/06/19 03:48:14;;;;;;;11.80;6.27;;;20.90;99.90;;;;;;5057274;28;20464;-86
2021/06/19 03:50:40;;;;;;;10.67;7.00;;;21.00;99.90;;;;;;5053651;28;20948;-85
2021/06/19 03:53:05;;;;;;;9.43;6.03;;;21.10;99.90;;;;;;5074274;28;20512;-86
2021/06/19 03:55:33;;;;;;;9.00;6.60;;;21.10;99.90;;;;;;5053979;28;20359;-86
2021/06/19 03:58:02;;;;;;;10.60;7.30;;;21.10;99.90;;;;;;5058619;28;20240;-86
2021/06/19 04:00:29;;;;;;;11.33;7.00;;;21.10;99.90;;;;;;5062272;28;20836;-86
2021/06/19 04:02:55;;;;;;;10.57;7.13;;;21.10;99.90;;;;;;5060016;28;20561;-86
2021/06/19 04:05:21;;;;;;;11.17;6.40;;;21.10;99.90;;;;;;5059101;28;20464;-86
2021/06/19 04:07:47;;;;;;;7.83;6.37;;;21.10;99.90;;;;;;5057699;28;20854;-86
2021/06/19 04:10:15;;;;;;;9.17;6.63;;;21.10;99.90;;;;;;5051587;28;20452;-86
2021/06/19 04:12:41;;;;;;;8.87;6.43;;;21.10;99.90;;;;;;5060985;28;20250;-86
2021/06/19 04:15:39;;;;;;;13.53;7.33;;;21.00;99.90;;;;;;5056691;28;20456;-86
2021/06/19 04:18:17;;;;;;;14.03;6.50;;;21.00;99.90;;;;;;5067156;28;20456;-86
2021/06/19 04:20:43;;;;;;;8.47;6.97;;;21.00;99.90;;;;;;5058185;28;20447;-85
2021/06/19 04:23:10;;;;;;;11.17;7.40;;;21.10;99.90;;;;;;5075942;28;20452;-86
2021/06/19 04:25:38;;;;;;;11.07;7.07;;;21.10;99.90;;;;;;5072701;28;20213;-86
2021/06/19 04:28:09;;;;;;;12.20;7.23;;;21.10;99.90;;;;;;5059290;28;20845;-86
2021/06/19 04:30:35;;;;;;;8.97;7.10;;;21.20;99.90;;;;;;5056470;28;20774;-86
2021/06/19 04:33:04;;;;;;;10.73;6.50;;;21.20;99.90;;;;;;5052584;28;20458;-86
2021/06/19 04:35:33;;;;;;;8.20;7.40;;;21.20;99.90;;;;;;5055607;28;20476;-86
2021/06/19 04:38:10;;;;;;;8.93;6.40;;;21.20;99.90;;;;;;5052160;28;20441;-86
2021/06/19 04:40:47;;;;;;;11.97;6.60;;;21.30;99.90;;;;;;5051587;28;20470;-86
2021/06/19 04:43:26;;;;;;;10.33;7.10;;;21.30;99.90;;;;;;5060766;28;20888;-86
2021/06/19 04:45:52;;;;;;;9.60;6.90;;;21.20;99.90;;;;;;5055569;28;20526;-86
2021/06/19 04:48:21;;;;;;;10.03;6.60;;;21.30;99.90;;;;;;5070221;28;21847;-86
2021/06/19 04:50:56;;;;;;;9.70;6.63;;;21.40;99.90;;;;;;5056395;28;20443;-86
2021/06/19 04:53:29;;;;;;;9.57;6.97;;;21.40;99.90;;;;;;5039209;28;20447;-87
2021/06/19 04:55:55;;;;;;;11.73;7.37;;;21.40;99.90;;;;;;5067866;28;20947;-86
2021/06/19 04:58:21;;;;;;;10.63;7.30;;;21.30;99.90;;;;;;5049429;28;20565;-86
2021/06/19 05:00:46;;;;;;;15.13;6.90;;;21.40;99.90;;;;;;5056719;28;20271;-86
2021/06/19 05:03:13;;;;;;;12.93;7.13;;;21.40;99.90;;;;;;5055282;28;22420;-86
2021/06/19 05:05:39;;;;;;;8.57;6.77;;;21.30;99.90;;;;;;5056133;28;20214;-86
2021/06/19 05:08:06;;;;;;;12.63;6.83;;;21.30;99.90;;;;;;5052601;28;20826;-86
2021/06/19 05:10:32;;;;;;;11.00;7.10;;;21.40;99.90;;;;;;5057126;28;20199;-86
2021/06/19 05:12:58;;;;;;;11.73;6.87;;;21.40;99.90;;;;;;5057014;28;20798;-86
2021/06/19 05:15:26;;;;;;;10.20;7.10;;;21.40;99.90;;;;;;5054862;28;21709;-86
2021/06/19 05:17:56;;;;;;;9.10;7.20;;;21.40;99.90;;;;;;5053659;28;20243;-87
2021/06/19 05:20:27;;;;;;;7.70;6.50;;;21.60;99.90;;;;;;5056292;28;20460;-87
2021/06/19 05:22:52;;;;;;;9.50;6.43;;;21.60;99.90;;;;;;5056255;28;20506;-89
2021/06/19 05:25:20;;;;;;;10.10;6.63;;;21.60;99.90;;;;;;5056916;28;20476;-89
2021/06/19 05:27:46;;;;;;;12.07;6.60;;;21.60;99.90;;;;;;5053229;28;20214;-89
2021/06/19 05:30:12;;;;;;;11.03;6.50;;;21.50;99.90;;;;;;5051614;28;20532;-89
2021/06/19 05:32:38;;;;;;;14.53;6.90;;;21.50;99.90;;;;;;5056808;28;20186;-88
2021/06/19 05:35:07;;;;;;;11.30;6.13;;;21.50;99.90;;;;;;5051930;28;20468;-89
2021/06/19 05:37:37;;;;;;;11.63;6.33;;;21.40;99.90;;;;;;5056468;28;21049;-89
2021/06/19 05:40:11;;;;;;;9.27;6.10;;;21.40;99.90;;;;;;5059874;28;20441;-89
2021/06/19 05:42:37;;;;;;;10.60;6.70;;;21.40;99.90;;;;;;5054665;28;20977;-89
2021/06/19 05:45:07;;;;;;;12.10;6.70;;;21.40;99.90;;;;;;5053156;28;21435;-87
2021/06/19 05:47:33;;;;;;;13.03;7.00;;;21.30;99.90;;;;;;5055883;28;20278;-87
2021/06/19 05:50:04;;;;;;;15.57;7.53;;;21.20;99.90;;;;;;5056324;28;20528;-87
2021/06/19 05:52:30;;;;;;;11.43;6.60;;;21.10;99.90;;;;;;5049422;28;20455;-87
2021/06/19 05:55:03;;;;;;;13.23;7.00;;;21.00;99.90;;;;;;5062765;28;20487;-87
2021/06/19 05:57:39;;;;;;;10.60;6.60;;;21.20;99.90;;;;;;5051535;28;21363;-86
2021/06/19 06:00:08;;;;;;;8.53;6.10;;;21.20;99.90;;;;;;5053845;28;20458;-86
2021/06/19 06:02:33;;;;;;;9.30;6.60;;;21.30;99.90;;;;;;5054743;28;20494;-87
2021/06/19 06:04:59;;;;;;;14.87;7.23;;;21.30;99.90;;;;;;5055587;28;20469;-86
2021/06/19 06:07:25;;;;;;;7.50;6.53;;;21.40;99.90;;;;;;5053829;28;20194;-87
2021/06/19 06:09:50;;;;;;;7.73;6.90;;;21.70;99.90;;;;;;5052917;28;20251;-86
2021/06/19 06:12:16;;;;;;;10.73;6.47;;;21.80;99.90;;;;;;5058900;28;20183;-86
2021/06/19 06:14:42;;;;;;;11.40;6.60;;;21.90;99.90;;;;;;5056490;28;20190;-86
2021/06/19 06:17:08;;;;;;;13.70;6.87;;;22.00;99.90;;;;;;5051998;28;20653;-86
2021/06/19 06:19:34;;;;;;;13.53;7.30;;;22.10;99.90;;;;;;5051345;28;20632;-86
2021/06/19 06:22:02;;;;;;;9.33;6.73;;;22.10;99.90;;;;;;5052850;28;20186;-86
2021/06/19 06:24:27;;;;;;;12.70;8.57;;;22.20;99.90;;;;;;5054151;28;20468;-86
2021/06/19 06:26:53;;;;;;;10.00;7.33;;;22.30;99.90;;;;;;5055052;28;20451;-86
2021/06/19 06:29:19;;;;;;;9.13;7.33;;;22.40;99.90;;;;;;5053313;28;20178;-86
2021/06/19 06:31:44;;;;;;;9.03;6.50;;;22.50;99.90;;;;;;5054151;28;20640;-86
2021/06/19 06:34:10;;;;;;;9.30;7.33;;;22.60;99.90;;;;;;5054465;28;20232;-86
2021/06/19 06:36:36;;;;;;;11.20;7.07;;;22.70;99.90;;;;;;5052620;28;20651;-89
2021/06/19 06:39:04;;;;;;;9.57;7.10;;;22.80;99.90;;;;;;5055392;28;20736;-89
2021/06/19 06:41:33;;;;;;;10.87;7.50;;;22.90;99.90;;;;;;5071559;28;20186;-89
2021/06/19 06:43:58;;;;;;;11.33;7.20;;;23.10;99.90;;;;;;5054315;28;20444;-86
2021/06/19 06:46:24;;;;;;;11.00;7.37;;;23.20;99.90;;;;;;5054737;28;20470;-86
2021/06/19 06:48:50;;;;;;;9.13;7.07;;;23.40;99.90;;;;;;5065936;28;20183;-86
2021/06/19 06:51:16;;;;;;;7.90;7.03;;;23.60;99.90;;;;;;5055727;28;20259;-86
2021/06/19 06:54:06;;;;;;;11.47;7.33;;;23.60;99.90;;;;;;5045493;28;20225;-87
2021/06/19 06:59:36;;;;;;;11.60;7.57;;;23.90;99.90;;;;;;5072181;28;20490;-86
2021/06/19 07:02:08;;;;;;;9.07;7.20;;;23.90;99.90;;;;;;5045838;28;20463;-86
2021/06/19 07:05:14;;;;;;;12.10;7.23;;;24.00;99.90;;;;;;5063234;28;20482;-87
2021/06/19 07:07:42;;;;;;;15.33;7.97;;;24.00;99.90;;;;;;5054587;28;20463;-86
2021/06/19 07:10:28;;;;;;;15.10;7.63;;;24.10;99.90;;;;;;5065675;28;20876;-87
2021/06/19 07:13:32;;;;;;;8.93;7.60;;;23.90;99.90;;;;;;5064331;28;21302;-87
2021/06/19 07:16:28;;;;;;;8.87;7.80;;;24.10;99.90;;;;;;5057670;28;20444;-86
2021/06/19 07:18:53;;;;;;;14.60;9.50;;;24.30;99.90;;;;;;5032501;28;20742;-87
2021/06/19 07:21:52;;;;;;;9.00;8.10;;;24.00;99.90;;;;;;5060609;28;21136;-87
2021/06/19 07:24:27;;;;;;;11.00;8.53;;;24.00;99.90;;;;;;5048588;28;20241;-89
2021/06/19 07:26:56;;;;;;;9.70;8.07;;;24.30;99.90;;;;;;5051517;28;20459;-87
2021/06/19 07:29:54;;;;;;;10.00;8.27;;;24.60;99.90;;;;;;5068505;28;20436;-87
2021/06/19 07:32:37;;;;;;;9.77;8.83;;;25.00;99.90;;;;;;5058616;28;21059;-88
2021/06/19 07:35:31;;;;;;;18.80;9.33;;;25.10;99.90;;;;;;5076669;28;20475;-87
2021/06/19 07:37:57;;;;;;;8.97;8.07;;;25.30;99.90;;;;;;5067677;28;20443;-87
2021/06/19 07:40:23;;;;;;;9.50;8.10;;;25.30;99.90;;;;;;5055985;28;20448;-87
2021/06/19 07:42:48;;;;;;;9.73;8.87;;;25.40;99.90;;;;;;5053593;28;20210;-88
2021/06/19 07:45:15;;;;;;;10.17;8.23;;;25.50;99.90;;;;;;5058777;28;20554;-88
2021/06/19 07:47:41;;;;;;;9.13;7.90;;;25.60;99.90;;;;;;5059934;28;20182;-88
2021/06/19 07:50:08;;;;;;;11.43;8.77;;;25.50;99.90;;;;;;5041121;28;20803;-88
2021/06/19 07:52:34;;;;;;;10.57;9.40;;;25.30;99.90;;;;;;5061021;28;20185;-90
2021/06/19 07:55:00;;;;;;;9.00;8.20;;;25.40;99.90;;;;;;5061603;28;20436;-88
2021/06/19 07:57:26;;;;;;;11.53;7.70;;;25.70;99.90;;;;;;5061229;28;20551;-89
2021/06/19 07:59:51;;;;;;;9.00;8.10;;;25.90;99.90;;;;;;5060739;28;20240;-88
2021/06/19 08:02:18;;;;;;;11.57;7.73;;;26.00;99.90;;;;;;5062135;28;20663;-88
2021/06/19 08:04:44;;;;;;;9.50;8.33;;;26.20;99.90;;;;;;5066476;28;20237;-88
2021/06/19 08:07:18;;;;;;;9.03;8.03;;;26.20;99.90;;;;;;5064147;28;20440;-88
2021/06/19 08:09:47;;;;;;;10.83;8.00;;;26.30;99.90;;;;;;5065965;28;20557;-88
2021/06/19 08:12:21;;;;;;;12.17;7.40;;;26.50;99.90;;;;;;5078035;28;20441;-88
2021/06/19 08:14:46;;;;;;;8.90;8.00;;;26.50;99.90;;;;;;5056629;28;21032;-88
2021/06/19 08:17:18;;;;;;;9.37;7.77;;;26.70;99.90;;;;;;5065076;28;20649;-88
2021/06/19 08:19:55;;;;;;;10.03;7.90;;;26.80;99.90;;;;;;5066363;28;20282;-88
2021/06/19 08:22:25;;;;;;;9.70;7.40;;;26.90;99.90;;;;;;5080063;28;20444;-89
2021/06/19 08:24:53;;;;;;;10.30;7.63;;;26.90;99.30;;;;;;5079730;28;20816;-89
2021/06/19 08:27:25;;;;;;;8.80;7.50;;;26.90;99.90;;;;;;5065931;28;20987;-89
2021/06/19 08:30:14;;;;;;;11.50;8.63;;;26.80;99.50;;;;;;5060339;28;20524;-90
2021/06/19 08:32:41;;;;;;;10.17;7.20;;;27.10;99.40;;;;;;5061971;28;20550;-89
2021/06/19 08:35:14;;;;;;;10.17;7.90;;;27.30;98.60;;;;;;5065803;28;20531;-89
2021/06/19 08:37:42;;;;;;;9.30;8.10;;;27.50;99.90;;;;;;5059102;28;20223;-89
2021/06/19 08:40:13;;;;;;;10.87;8.10;;;27.40;99.30;;;;;;5062012;28;20451;-89
2021/06/19 08:42:39;;;;;;;9.03;7.90;;;27.40;99.60;;;;;;5062780;28;20444;-89
2021/06/19 08:45:06;;;;;;;9.40;8.27;;;27.30;99.40;;;;;;5072356;28;20490;-89
2021/06/19 08:47:36;;;;;;;10.53;8.30;;;27.40;99.90;;;;;;5062313;28;20179;-89
2021/06/19 08:50:10;;;;;;;11.30;8.57;;;27.50;99.80;;;;;;5057537;28;21622;-89
2021/06/19 08:52:40;;;;;;;9.03;8.13;;;27.60;99.10;;;;;;5063587;28;20455;-89
2021/06/19 08:55:09;;;;;;;9.20;8.40;;;27.60;98.90;;;;;;5079134;28;22784;-89
2021/06/19 08:57:35;;;;;;;10.53;8.30;;;27.60;99.30;;;;;;5057342;28;20467;-89
2021/06/19 09:00:03;;;;;;;10.53;8.40;;;27.70;99.30;;;;;;5060184;28;20444;-90
2021/06/19 09:02:28;;;;;;;9.00;8.20;;;27.60;98.90;;;;;;5060565;28;20448;-89
2021/06/19 09:05:25;;;;;;;10.27;8.07;;;27.70;99.40;;;;;;5060744;28;20840;-90
2021/06/19 09:07:52;;;;;;;11.03;9.53;;;27.90;98.90;;;;;;5045149;28;20198;-90
2021/06/19 09:10:32;;;;;;;11.50;9.80;;;28.00;98.90;;;;;;5059895;28;20471;-89
2021/06/19 09:12:58;;;;;;;10.63;8.60;;;28.00;98.20;;;;;;5060167;28;20757;-90
2021/06/19 09:15:24;;;;;;;12.03;8.63;;;28.20;98.70;;;;;;5058629;28;20470;-90
2021/06/19 09:18:09;;;;;;;11.33;9.47;;;28.40;99.10;;;;;;5062602;28;20189;-89
2021/06/19 09:20:36;;;;;;;11.50;9.13;;;28.30;98.70;;;;;;5058250;28;20711;-90
2021/06/19 09:23:10;;;;;;;9.10;8.20;;;28.30;98.30;;;;;;5058422;28;20974;-89
2021/06/19 09:25:38;;;;;;;9.10;8.27;;;28.50;97.90;;;;;;5073662;28;20852;-90
2021/06/19 09:28:08;;;;;;;9.07;8.10;;;28.50;97.90;;;;;;5063281;28;20799;-89
2021/06/19 09:30:35;;;;;;;9.53;8.30;;;28.60;96.90;;;;;;5060333;28;20448;-89
2021/06/19 09:33:10;;;;;;;11.97;8.20;;;28.80;97.60;;;;;;5047059;28;20844;-89
2021/06/19 09:35:38;;;;;;;9.93;8.63;;;29.00;97.00;;;;;;5058881;28;20818;-90
2021/06/19 09:38:10;;;;;;;10.80;9.00;;;29.10;96.10;;;;;;5060555;28;20447;-90
2021/06/19 09:40:40;;;;;;;8.67;8.00;;;29.20;95.70;;;;;;5070666;28;20456;-89
2021/06/19 09:43:22;;;;;;;8.63;7.73;;;29.30;96.10;;;;;;5063735;28;20866;-89
2021/06/19 09:45:58;;;;;;;10.07;8.80;;;29.20;95.00;;;;;;5059565;28;20480;-91
2021/06/19 09:48:29;;;;;;;10.03;8.17;;;29.40;96.20;;;;;;5053622;28;20506;-92
2021/06/19 09:51:16;;;;;;;10.10;8.10;;;29.50;95.10;;;;;;5059453;28;20468;-89
2021/06/19 09:53:50;;;;;;;11.63;8.50;;;29.60;95.60;;;;;;5057766;28;20454;-90
2021/06/19 09:56:25;;;;;;;11.90;8.43;;;29.60;94.50;;;;;;5054262;28;20440;-90
2021/06/19 09:58:55;;;;;;;11.90;7.93;;;29.40;94.40;;;;;;5064054;28;20455;-90
2021/06/19 10:01:33;;;;;;;10.63;8.00;;;29.40;94.90;;;;;;5059074;28;20463;-90
2021/06/19 10:03:59;;;;;;;13.20;8.40;;;29.50;93.90;;;;;;5055866;28;20433;-90
2021/06/19 10:06:26;;;;;;;8.70;7.87;;;29.80;94.00;;;;;;5069009;28;20498;-90
2021/06/19 10:08:53;;;;;;;11.23;7.80;;;30.10;95.10;;;;;;5057213;28;20433;-90
2021/06/19 10:11:23;;;;;;;11.10;7.70;;;30.10;94.00;;;;;;5039751;28;20527;-90
2021/06/19 10:13:48;;;;;;;11.40;7.40;;;29.90;93.20;;;;;;5057926;28;20870;-90
2021/06/19 10:16:16;;;;;;;14.23;7.63;;;30.00;94.30;;;;;;5059008;28;20523;-90
2021/06/19 10:18:47;;;;;;;8.00;7.23;;;30.10;92.90;;;;;;5074680;28;20476;-90
2021/06/19 10:21:14;;;;;;;9.63;7.47;;;30.10;92.60;;;;;;5056125;28;20453;-90
2021/06/19 10:23:41;;;;;;;11.17;7.60;;;30.30;93.50;;;;;;5074239;28;20444;-90
2021/06/19 10:26:07;;;;;;;18.40;8.20;;;30.20;92.30;;;;;;5058086;28;20488;-90
2021/06/19 10:28:40;;;;;;;12.10;8.07;;;30.30;94.10;;;;;;5072881;28;20424;-90
2021/06/19 10:31:08;;;;;;;11.63;8.33;;;30.40;93.20;;;;;;5058722;28;20444;-90
2021/06/19 10:33:35;;;;;;;8.80;7.30;;;30.50;92.40;;;;;;5058767;28;20437;-90
2021/06/19 10:36:22;;;;;;;11.30;7.57;;;30.80;91.50;;;;;;5058796;28;21814;-89
2021/06/19 10:38:57;;;;;;;10.00;7.97;;;31.00;90.50;;;;;;5043212;28;20554;-90
2021/06/19 10:44:53;;;;;;;9.90;7.37;;;31.00;91.40;;;;;;5032840;28;20472;-90
2021/06/19 10:47:22;;;;;;;13.93;8.57;;;30.90;91.30;;;;;;5073610;28;20448;-90
2021/06/19 10:49:49;;;;;;;11.80;8.23;;;30.90;91.20;;;;;;5056553;28;20445;-90
2021/06/19 10:52:50;;;;;;;11.57;7.93;;;30.90;90.50;;;;;;5057888;28;20441;-90
2021/06/19 10:55:18;;;;;;;8.10;7.30;;;31.00;91.50;;;;;;5031508;28;20448;-90
2021/06/19 10:57:55;;;;;;;8.57;7.70;;;31.30;91.90;;;;;;5056950;28;20807;-90
2021/06/19 11:00:59;;;;;;;10.27;7.77;;;31.20;90.40;;;;;;5056370;28;20487;-89
2021/06/19 11:03:47;;;;;;;7.47;6.83;;;31.30;90.40;;;;;;5008757;28;21064;-90
2021/06/19 11:06:30;;;;;;;9.37;7.40;;;31.30;89.60;;;;;;5073129;28;20476;-90
2021/06/19 11:09:19;;;;;;;8.30;7.23;;;31.50;88.00;;;;;;5057302;28;20509;-90
2021/06/19 11:11:56;;;;;;;15.07;6.90;;;31.50;86.70;;;;;;5057400;28;20858;-90
2021/06/19 11:17:26;;;;;;;8.63;5.83;;;31.60;83.90;;;;;;5075389;28;20449;-90
2021/06/19 11:19:57;;;;;;;13.23;6.80;;;31.40;81.80;;;;;;5061667;28;20460;-90
2021/06/19 11:22:38;;;;;;;14.23;6.23;;;31.50;83.40;;;;;;5059612;28;20455;-90
2021/06/19 11:25:12;;;;;;;8.50;7.10;;;31.50;81.10;;;;;;5062423;28;20471;-90
2021/06/19 11:28:02;;;;;;;9.47;5.70;;;31.60;84.30;;;;;;5072093;28;20529;-90
2021/06/19 11:30:58;;;;;;;10.50;6.10;;;31.70;84.90;;;;;;5076508;28;20442;-90
2021/06/19 11:33:25;;;;;;;6.93;6.20;;;31.90;81.40;;;;;;5061721;28;20516;-91
2021/06/19 11:35:52;;;;;;;10.27;6.67;;;32.20;80.30;;;;;;5066098;28;20446;-90
2021/06/19 11:38:20;;;;;;;8.43;6.00;;;32.50;77.50;;;;;;5060052;28;20535;-91
2021/06/19 11:40:56;;;;;;;13.53;6.43;;;32.80;75.50;;;;;;5063580;28;20443;-91
2021/06/19 11:43:31;;;;;;;10.97;6.70;;;33.00;72.70;;;;;;5074315;28;20449;-91
2021/06/19 11:46:28;;;;;;;8.20;5.80;;;32.70;76.20;;;;;;5059481;28;20892;-91
2021/06/19 11:49:09;;;;;;;10.97;5.40;;;32.60;76.60;;;;;;5059453;28;20444;-91
2021/06/19 11:54:15;;;;;;;11.93;6.20;;;32.70;71.60;;;;;;5088142;28;20486;-91
2021/06/19 11:56:42;;;;;;;9.50;6.10;;;33.10;73.30;;;;;;5074961;28;20585;-91
2021/06/19 11:59:08;;;;;;;8.53;5.67;;;33.00;69.30;;;;;;5057309;28;21038;-90
2021/06/19 12:01:54;;;;;;;8.47;6.17;;;33.10;71.10;;;;;;5064330;28;20451;-90
2021/06/19 12:04:31;;;;;;;7.80;6.00;;;33.40;72.70;;;;;;5061400;28;20202;-91
2021/06/19 12:07:02;;;;;;;9.60;5.63;;;33.90;70.10;;;;;;5062826;28;20455;-91
2021/06/19 12:09:33;;;;;;;8.60;5.30;;;33.50;66.30;;;;;;5074991;28;20490;-90
2021/06/19 12:12:06;;;;;;;10.10;5.53;;;33.80;69.00;;;;;;5060731;28;21941;-90
2021/06/19 12:14:34;;;;;;;7.70;5.63;;;34.00;64.80;;;;;;5063943;28;20485;-90
2021/06/19 12:17:07;;;;;;;7.70;5.43;;;33.70;64.80;;;;;;5074428;28;20448;-91
2021/06/19 12:19:37;;;;;;;10.30;6.10;;;34.00;64.40;;;;;;5054681;28;20432;-91
2021/06/19 12:22:05;;;;;;;9.60;5.77;;;34.20;67.60;;;;;;5047094;28;20545;-91
2021/06/19 12:24:35;;;;;;;13.53;6.47;;;34.30;64.80;;;;;;5057771;28;20551;-91
2021/06/19 12:27:23;;;;;;;10.60;6.57;;;34.30;64.00;;;;;;5061488;28;20529;-91
2021/06/19 12:29:56;;;;;;;10.27;5.70;;;34.50;69.10;;;;;;5060323;28;20447;-90
2021/06/19 12:32:34;;;;;;;6.13;5.53;;;34.70;66.90;;;;;;5060516;28;20534;-90
2021/06/19 12:35:15;;;;;;;9.90;6.40;;;34.60;64.20;;;;;;5079439;28;20987;-91
2021/06/19 12:37:55;;;;;;;11.97;6.00;;;34.10;65.70;;;;;;5045492;28;20455;-90
2021/06/19 12:40:25;;;;;;;11.20;6.47;;;34.30;63.80;;;;;;5058872;28;20447;-91
2021/06/19 12:42:57;;;;;;;12.27;6.70;;;34.40;68.00;;;;;;5048855;28;20443;-91
2021/06/19 12:45:25;;;;;;;12.27;6.33;;;34.70;64.70;;;;;;5073108;28;20476;-91
2021/06/19 12:47:53;;;;;;;8.00;6.33;;;34.60;61.80;;;;;;5059889;28;20444;-90
2021/06/19 12:50:37;;;;;;;11.60;6.47;;;34.90;58.60;;;;;;5060259;28;20780;-91
2021/06/19 12:53:12;;;;;;;9.93;6.60;;;35.00;63.00;;;;;;5059737;28;20444;-91
2021/06/19 12:55:39;;;;;;;10.63;6.30;;;35.00;61.90;;;;;;5067251;28;21854;-91
2021/06/19 12:58:15;;;;;;;8.97;7.30;;;34.80;61.80;;;;;;5059579;28;20451;-90
2021/06/19 13:00:50;;;;;;;10.30;7.57;;;34.70;62.30;;;;;;5058632;28;20473;-90
2021/06/19 13:03:22;;;;;;;8.33;6.47;;;35.00;64.10;;;;;;5057359;28;20802;-90
2021/06/19 13:05:56;;;;;;;8.33;6.67;;;35.00;61.90;;;;;;5057010;28;20479;-90
2021/06/19 13:08:27;;;;;;;8.90;7.13;;;34.70;63.70;;;;;;5058754;28;20461;-89